• Join FlightAware (Why Join?)
  • Login
  • US Flag 
02:45AM EST


 

Airport Tracker/Info


-or-


 

Live Flight TrackerFlight Track Log ✈ AFR6719 ✈ 28-Apr-2013 ✈ MMMX / MEX - KATL

Flight Track Log - Related Links

Times and Time Zones

All times are in EDT time to prevent confusion due to time zone crossing. See the AFR6719 flight status page for this flight to view local times or setup timezone preferences in your user account.

Time Position Orientation Groundspeed Altitude Reporting Facility
EDT Latitude Longitude Course Direction KTS MPH feet Rate Location/Type
02:59AM 19.5960 -98.7890 60° Northeast 354 407 18,300  Level FlightAware
03:00AM 19.6250 -98.7360 60° Northeast 354 407 18,300 660 Level FlightAware
03:02AM 19.7762 -98.6041 39° Northeast  Level Estimated
03:03AM 19.8643 -98.5272 39° Northeast  Level Estimated
03:04AM 19.9523 -98.4501 39° Northeast  Level Estimated
03:05AM 20.0403 -98.3730 39° Northeast  Level Estimated
03:06AM 20.1282 -98.2958 39° Northeast  Level Estimated
03:07AM 20.2161 -98.2186 40° Northeast  Level Estimated
03:08AM 20.3040 -98.1412 40° Northeast  Level Estimated
03:09AM 20.3918 -98.0637 40° Northeast  Level Estimated
03:10AM 20.4797 -97.9862 40° Northeast  Level Estimated
03:11AM 20.5674 -97.9085 40° Northeast  Level Estimated
03:12AM 20.6552 -97.8308 40° Northeast  Level Estimated
03:13AM 20.7429 -97.7530 40° Northeast  Level Estimated
03:14AM 20.8306 -97.6751 40° Northeast  Level Estimated
03:15AM 20.9182 -97.5971 40° Northeast  Level Estimated
03:16AM 21.0058 -97.5190 40° Northeast  Level Estimated
03:17AM 21.0934 -97.4408 40° Northeast  Level Estimated
03:18AM 21.1809 -97.3625 40° Northeast  Level Estimated
03:19AM 21.2684 -97.2842 40° Northeast  Level Estimated
03:20AM 21.3559 -97.2057 40° Northeast  Level Estimated
03:21AM 21.4433 -97.1272 40° Northeast  Level Estimated
03:22AM 21.5306 -97.0485 40° Northeast  Level Estimated
03:23AM 21.6180 -96.9698 40° Northeast  Level Estimated
03:24AM 21.7053 -96.8909 40° Northeast  Level Estimated
03:25AM 21.7926 -96.8120 40° Northeast  Level Estimated
03:26AM 21.8798 -96.7330 40° Northeast  Level Estimated
03:27AM 21.9670 -96.6538 40° Northeast  Level Estimated
03:28AM 22.0542 -96.5746 40° Northeast  Level Estimated
03:29AM 22.1413 -96.4953 40° Northeast  Level Estimated
03:30AM 22.2284 -96.4159 40° Northeast  Level Estimated
03:31AM 22.3154 -96.3363 40° Northeast  Level Estimated
03:32AM 22.4024 -96.2567 40° Northeast  Level Estimated
03:33AM 22.4894 -96.1770 40° Northeast  Level Estimated
03:33AM 23.6430 -96.9310 40° Northeast 492 566 41,000  Level FlightAware
03:34AM 22.5763 -96.0972 40° Northeast  Level Estimated
03:34AM 23.7350 -96.8660 33° Northeast 492 566 41,000  Level FlightAware
03:34AM 23.8060 -96.8180 32° Northeast 492 566 41,000  Level FlightAware
03:35AM 23.8720 -96.7730 32° Northeast 492 566 41,000  Level FlightAware
03:36AM 23.9370 -96.7280 32° Northeast 492 566 41,000  Level FlightAware
03:36AM 24.0030 -96.6830 32° Northeast 492 566 41,000  Level FlightAware
03:37AM 24.0850 -96.6270 32° Northeast 492 566 41,000  Level FlightAware
03:38AM 24.2130 -96.5310 34° Northeast 488 562 41,000  Level FlightAware
03:38AM 24.2900 -96.4770 33° Northeast 488 562 41,000  Level FlightAware
03:39AM 24.3720 -96.4190 33° Northeast 489 563 41,000  Level FlightAware
03:40AM 24.4490 -96.3650 33° Northeast 490 564 41,000  Level FlightAware
03:41AM 24.5380 -96.3020 33° Northeast 490 564 41,000  Level FlightAware
03:41AM 24.6130 -96.2480 33° Northeast 490 564 41,000  Level FlightAware
03:42AM 24.6910 -96.1930 33° Northeast 491 565 41,000  Level FlightAware
03:43AM 24.7730 -96.1350 33° Northeast 492 566 41,000  Level FlightAware
03:43AM 24.8510 -96.0790 33° Northeast 492 566 41,000  Level FlightAware
03:44AM 24.9400 -96.0160 33° Northeast 493 567 41,000  Level FlightAware
03:45AM 25.0130 -95.9630 33° Northeast 494 568 41,000  Level FlightAware
03:45AM 25.0890 -95.9090 33° Northeast 495 570 41,000  Level FlightAware
03:46AM 25.1780 -95.8450 33° Northeast 498 573 41,000  Level FlightAware
03:47AM 25.2560 -95.7890 33° Northeast 500 575 41,000  Level FlightAware
03:48AM 25.3420 -95.7270 33° Northeast 502 578 41,000  Level FlightAware
03:48AM 25.4210 -95.6700 33° Northeast 504 580 41,000  Level FlightAware
03:49AM 25.4990 -95.6130 33° Northeast 506 582 41,000  Level FlightAware
03:50AM 25.5880 -95.5490 33° Northeast 507 583 41,000  Level FlightAware
03:50AM 25.6630 -95.4840 38° Northeast 525 604 41,000  Level FlightAware
03:51AM 25.7330 -95.4080 44° Northeast 530 610 41,000  Level FlightAware
03:52AM 25.8110 -95.3220 45° Northeast 531 611 41,000  Level FlightAware
03:52AM 25.8780 -95.2470 45° Northeast 531 611 41,000  Level FlightAware
03:53AM 25.9480 -95.1690 45° Northeast 531 611 41,000  Level FlightAware
03:54AM 26.0270 -95.0800 45° Northeast 528 608 41,000  Level FlightAware
03:54AM 26.0910 -95.0100 44° Northeast 528 608 41,000  Level FlightAware
03:55AM 26.1740 -94.9170 45° Northeast 530 610 41,000  Level FlightAware
03:56AM 26.2508 -94.8316 45° Northeast 530 610 41,000  Level FlightAware ADS-B
03:56AM 26.3052 -94.7708 45° Northeast 532 612 41,000  Level FlightAware ADS-B
03:57AM 26.4080 -94.6554 45° Northeast 533 613 41,000  Level FlightAware ADS-B
03:58AM 26.4610 -94.5958 45° Northeast 533 613 41,000  Level FlightAware ADS-B
03:58AM 26.5136 -94.5366 45° Northeast 532 612 41,000  Level FlightAware ADS-B
03:59AM 26.5740 -94.4686 45° Northeast 532 612 41,000  Level FlightAware ADS-B
04:00AM 26.6263 -94.4096 45° Northeast 532 612 41,000  Level FlightAware ADS-B
04:00AM 26.7151 -94.3089 45° Northeast 530 610 41,000  Level FlightAware ADS-B
04:01AM 26.7678 -94.2492 45° Northeast 529 609 41,000  Level FlightAware ADS-B
04:01AM 26.8219 -94.1880 45° Northeast 528 608 41,000  Level FlightAware ADS-B
04:02AM 26.8785 -94.1239 45° Northeast 528 608 41,000  Level FlightAware ADS-B
04:02AM 26.9300 -94.0652 45° Northeast 528 608 41,000  Level FlightAware ADS-B
04:03AM 26.9842 -94.0035 45° Northeast 528 608 41,000  Level FlightAware ADS-B
04:04AM 27.0583 -93.9188 45° Northeast 523 602 41,000  Level FlightAware ADS-B
04:04AM 27.1123 -93.8570 46° Northeast 520 598 41,000  Level FlightAware ADS-B
04:05AM 27.1653 -93.7963 46° Northeast 519 597 41,000  Level FlightAware ADS-B
04:05AM 27.2225 -93.7306 46° Northeast 519 597 41,000  Level FlightAware ADS-B
04:06AM 27.2793 -93.6652 46° Northeast 518 596 41,000  Level FlightAware ADS-B
04:06AM 27.3381 -93.5977 46° Northeast 519 597 41,000  Level FlightAware ADS-B
04:07AM 27.4268 -93.4957 46° Northeast 522 601 41,000  Level FlightAware ADS-B
04:08AM 27.4933 -93.4189 46° Northeast 524 603 41,000  Level FlightAware ADS-B
04:09AM 27.5734 -93.3261 46° Northeast 525 604 41,000  Level FlightAware ADS-B
04:09AM 27.6247 -93.2668 46° Northeast 524 603 41,000  Level FlightAware ADS-B
04:10AM 27.6809 -93.2016 46° Northeast 524 603 41,000  Level FlightAware ADS-B
04:10AM 27.7382 -93.1352 46° Northeast 523 602 41,000  Level FlightAware ADS-B
04:11AM 27.7914 -93.0733 46° Northeast 523 602 41,000  Level FlightAware ADS-B
04:12AM 27.8471 -93.0083 46° Northeast 524 603 41,000  Level FlightAware ADS-B
04:12AM 27.8986 -92.9482 46° Northeast 526 605 41,000  Level FlightAware ADS-B
04:13AM 27.9494 -92.8889 46° Northeast 527 606 41,000  Level FlightAware ADS-B
04:18AM 28.5118 -92.2249 46° Northeast 522 601 41,000  Level FlightAware ADS-B
04:19AM 28.5617 -92.1655 46° Northeast 520 598 41,000  Level FlightAware ADS-B
04:19AM 28.6125 -92.1049 46° Northeast 518 596 41,000  Level FlightAware ADS-B
04:20AM 28.6620 -92.0457 46° Northeast 515 593 41,000  Level FlightAware ADS-B
04:20AM 28.7111 -91.9869 46° Northeast 512 589 41,000  Level FlightAware ADS-B
04:21AM 28.7685 -91.9181 46° Northeast 509 586 41,000  Level FlightAware ADS-B
04:21AM 28.8197 -91.8568 46° Northeast 508 585 41,000  Level FlightAware ADS-B
04:22AM 28.9239 -91.7315 46° Northeast 508 585 41,000  Level FlightAware ADS-B
04:23AM 28.9729 -91.6724 47° Northeast 506 582 41,000  Level FlightAware ADS-B
04:23AM 29.0269 -91.6072 47° Northeast 505 581 41,000  Level FlightAware ADS-B
04:24AM 29.0772 -91.5463 47° Northeast 505 581 41,000  Level FlightAware ADS-B
04:24AM 29.1282 -91.4845 47° Northeast 507 583 41,000  Level FlightAware ADS-B
04:25AM 29.1787 -91.4232 47° Northeast 507 583 41,000  Level FlightAware ADS-B
04:25AM 29.2294 -91.3617 47° Northeast 508 585 41,000  Level FlightAware ADS-B
04:26AM 29.2887 -91.2895 47° Northeast 509 586 41,000  Level FlightAware ADS-B
04:27AM 29.3972 -91.1568 47° Northeast 512 589 41,000  Level FlightAware ADS-B
04:28AM 29.4349 -91.1084 48° Northeast 514 592 41,000  Level FlightAware ADS-B
04:31AM 29.7059 -90.7156 51° Northeast 514 592 41,000  Level FlightAware ADS-B
04:32AM 29.7999 -90.5758 52° Northeast 512 589 41,000  Level FlightAware ADS-B
04:32AM 29.8620 -90.4835 52° Northeast 511 588 41,000  Level FlightAware ADS-B
04:33AM 29.9360 -90.3730 52° Northeast 509 586 41,000  Level FlightAware
04:34AM 30.0070 -90.2670 52° Northeast 507 583 41,000  Level FlightAware
04:35AM 30.0690 -90.1740 52° Northeast 505 581 41,000  Level FlightAware
04:36AM 30.1310 -90.0820 52° Northeast 502 578 41,000  Level FlightAware
04:37AM 30.2120 -89.9600 52° Northeast 502 578 41,000  Level FlightAware
04:37AM 30.2760 -89.8640 52° Northeast 503 579 41,000  Level FlightAware
04:38AM 30.3350 -89.7750 52° Northeast 505 581 41,000  Level FlightAware
04:39AM 30.3930 -89.6870 53° Northeast 506 582 41,000  Level FlightAware
04:39AM 30.4470 -89.6040 53° Northeast 508 585 41,000  Level FlightAware
04:40AM 30.5110 -89.5060 53° Northeast 511 588 41,000  Level FlightAware
04:41AM 30.5690 -89.4180 53° Northeast 512 589 41,000  Level FlightAware
04:41AM 30.6260 -89.3310 53° Northeast 512 589 41,000  Level FlightAware
04:42AM 30.6920 -89.2290 53° Northeast 513 590 41,000  Level FlightAware
04:43AM 30.7500 -89.1410 53° Northeast 513 590 41,000  Level FlightAware
04:44AM 30.8120 -89.0450 53° Northeast 509 586 41,000  Level FlightAware
04:44AM 30.8690 -88.9570 53° Northeast 510 587 41,000  Level FlightAware
04:45AM 30.9260 -88.8690 53° Northeast 508 585 41,000  Level FlightAware
04:46AM 30.9900 -88.7700 53° Northeast 508 585 41,000  Level FlightAware
04:46AM 31.0460 -88.6830 53° Northeast 508 585 41,000  Level FlightAware
04:47AM 31.1090 -88.5850 53° Northeast 508 585 41,000  Level FlightAware
04:48AM 31.1630 -88.5000 53° Northeast 507 583 41,000 60 Level FlightAware
04:48AM 31.2290 -88.3970 53° Northeast 507 583 41,100  Climbing FlightAware
04:49AM 31.3050 -88.2770 53° Northeast 506 582 41,000 -120 Descending FlightAware
04:50AM 31.3600 -88.1910 53° Northeast 506 582 41,000 60 Level FlightAware
04:51AM 31.4160 -88.1030 53° Northeast 506 582 41,100  Climbing FlightAware
04:51AM 31.4660 -88.0230 54° Northeast 504 580 41,000 -120 Descending FlightAware
04:52AM 31.5330 -87.9190 53° Northeast 504 580 41,000  Level FlightAware
04:53AM 31.5810 -87.8450 53° Northeast 504 580 41,000  Level FlightAware
04:54AM 31.6530 -87.7270 54° Northeast 505 581 41,000  Level FlightAware
04:54AM 31.7090 -87.6400 53° Northeast 505 581 41,000  Level FlightAware
04:55AM 31.7700 -87.5390 55° Northeast 505 581 41,000  Level FlightAware
04:56AM 31.8320 -87.4400 54° Northeast 506 582 41,000  Level FlightAware
04:56AM 31.8720 -87.3760 54° Northeast 506 582 41,000  Level FlightAware
04:57AM 31.9400 -87.2660 54° Northeast 503 579 41,000  Level FlightAware
04:58AM 32.0030 -87.1640 54° Northeast 503 579 41,000 -180 Level FlightAware
04:58AM 32.0580 -87.0750 54° Northeast 511 588 40,800 -1,440 Descending FlightAware
04:59AM 32.1220 -86.9710 54° Northeast 516 594 39,000 -2,340 Descending FlightAware
05:00AM 32.1780 -86.8790 54° Northeast 517 595 37,500 -1,620 Descending FlightAware
05:01AM 32.2520 -86.7590 54° Northeast 520 598 36,500 -660 Descending FlightAware
05:01AM 32.3000 -86.6800 54° Northeast 520 598 36,500  Level FlightAware
05:02AM 32.3480 -86.6020 54° Northeast 520 598 36,500  Level FlightAware
05:03AM 32.3960 -86.5240 54° Northeast 520 598 36,500  Level FlightAware
05:04AM 32.4560 -86.4260 54° Northeast 520 598 36,500  Level FlightAware
05:04AM 32.5050 -86.3470 54° Northeast 520 598 36,500  Level FlightAware
05:05AM 32.5530 -86.2690 54° Northeast 520 598 36,500  Level FlightAware
05:06AM 32.6010 -86.1900 54° Northeast 520 598 36,500  Level FlightAware
05:06AM 32.6490 -86.1120 54° Northeast 520 598 36,500  Level FlightAware
05:07AM 32.7090 -86.0130 54° Northeast 520 598 36,500  Level FlightAware
05:08AM 32.7570 -85.9350 54° Northeast 520 598 36,500  Level FlightAware
05:08AM 32.7930 -85.8760 54° Northeast 520 598 36,500  Level FlightAware
05:09AM 32.8410 -85.7970 54° Northeast 520 598 36,500  Level FlightAware
05:10AM 32.8890 -85.7180 54° Northeast 520 598 36,500  Level FlightAware
05:10AM 32.9370 -85.6390 54° Northeast 520 598 36,500 -8,100 Level FlightAware
05:11AM 33.1320 -85.2910 56° Northeast 16,700 -10,860 Descending FlightAware
05:12AM 33.1990 -85.1760 55° Northeast 479 551 15,700 -600 Descending FlightAware
05:13AM 33.2490 -85.0910 55° Northeast 479 551 15,700 -1,200 Level FlightAware
05:14AM 33.3120 -84.9830 55° Northeast 456 525 13,900 -1,500 Descending FlightAware
05:15AM 33.3780 -84.8700 55° Northeast 428 493 13,100 -540 Descending FlightAware
05:15AM 33.4070 -84.8210 55° Northeast 428 493 13,100 -2,220 Level FlightAware
05:16AM 33.5080 -84.8520 346° North 312 359 10,200 -2,580 Descending FlightAware
05:16AM 33.5410 -84.8720 333° Northwest 275 316 9,900 -960 Descending FlightAware
05:17AM 33.5660 -84.8850 337° Northwest 271 312 9,400 -1,500 Descending FlightAware
05:17AM 33.5940 -84.8820 North 278 320 8,800 -1,380 Descending FlightAware
05:18AM 33.6160 -84.8580 42° Northeast 285 328 8,400 -1,320 Descending FlightAware
05:18AM 33.6310 -84.8150 67° East 273 314 7,600 -1,920 Descending FlightAware
05:19AM 33.6320 -84.7670 89° East 265 305 6,500 -1,200 Descending FlightAware
05:19AM 33.6320 -84.7330 90° East 265 305 6,500 -1,560 Level FlightAware
05:20AM 33.6320 -84.6260 90° East 243 280 3,800 -1,860 Descending FlightAware
05:21AM 33.6320 -84.5780 90° East 219 252 3,000 -1,200 Descending FlightAware
05:21AM 33.6320 -84.5490 90° East 188 216 2,600 -960 Descending FlightAware
05:22AM 33.6320 -84.5270 90° East 161 185 2,200 -1,020 Descending FlightAware
05:22AM 33.6320 -84.5010 90° East 138 159 1,700 -840 Descending FlightAware
05:23AM 33.6320 -84.4820 90° East 136 157 1,400 -660 Descending FlightAware
05:23AM 33.6320 -84.4530 90° East 139 160 1,000 -420 Descending FlightAware
05:24AM 33.6320 -84.4340 90° East 139 160 1,000  Level FlightAware
05:31AM 33.6367 -84.4279 57° Northeast  Level Estimated
05:32AM 33.6367 -84.4279 57° Northeast  Level Estimated
05:33AM 33.6367 -84.4279 57° Northeast  Level Estimated
05:34AM 33.6367 -84.4279 57° Northeast  Level Estimated
05:35AM 33.6367 -84.4279 57° Northeast  Level Estimated
05:36AM 33.6367 -84.4279 57° Northeast  Level Estimated
05:37AM 33.6367 -84.4279 57° Northeast  Level Estimated
05:38AM 33.6367 -84.4279 57° Northeast  Level Estimated